createdAt,value
2022-12-11T00:00:08.343Z,0.90
2022-12-11T00:02:35.061Z,0.90
2022-12-11T00:05:01.806Z,1.00
2022-12-11T00:07:28.456Z,0.90
2022-12-11T00:09:55.115Z,0.90
2022-12-11T00:12:21.861Z,0.90
2022-12-11T00:14:48.495Z,1.00
2022-12-11T00:17:15.223Z,1.00
2022-12-11T00:19:41.909Z,1.00
2022-12-11T00:22:08.891Z,1.00
2022-12-11T00:24:35.573Z,0.90
2022-12-11T00:27:02.336Z,0.90
2022-12-11T00:29:29.062Z,0.90
2022-12-11T00:31:55.830Z,0.90
2022-12-11T00:34:22.699Z,0.80
2022-12-11T00:36:49.400Z,0.80
2022-12-11T00:39:16.149Z,0.70
2022-12-11T00:41:42.850Z,0.50
2022-12-11T00:44:09.814Z,0.80
2022-12-11T00:46:36.524Z,0.90
2022-12-11T00:49:03.372Z,1.00
2022-12-11T00:51:30.073Z,1.00
2022-12-11T00:53:56.741Z,1.00
2022-12-11T00:56:23.585Z,0.90
2022-12-11T00:58:50.316Z,1.00
2022-12-11T01:01:20.033Z,1.00
2022-12-11T01:03:47.568Z,1.00
2022-12-11T01:06:20.166Z,0.90
2022-12-11T01:08:47.662Z,1.00
2022-12-11T01:11:16.390Z,1.10
2022-12-11T01:13:43.242Z,1.00
2022-12-11T01:16:14.994Z,1.00
2022-12-11T01:18:42.355Z,1.00
2022-12-11T01:21:11.423Z,1.00
2022-12-11T01:23:38.345Z,1.00
2022-12-11T01:26:10.404Z,1.00
2022-12-11T01:28:37.316Z,1.00
2022-12-11T01:31:09.007Z,1.10
2022-12-11T01:33:36.008Z,1.10
2022-12-11T01:36:08.892Z,1.00
2022-12-11T01:38:35.723Z,1.00
2022-12-11T01:41:03.454Z,1.00
2022-12-11T01:43:30.114Z,1.10
2022-12-11T01:45:56.934Z,1.00
2022-12-11T01:48:30.179Z,1.00
2022-12-11T01:50:59.981Z,1.00
2022-12-11T01:53:34.450Z,0.90
2022-12-11T01:56:02.785Z,1.00
2022-12-11T01:58:38.742Z,1.00
2022-12-11T02:01:06.401Z,1.00
2022-12-11T02:03:33.203Z,1.00
2022-12-11T02:06:01.593Z,0.90
2022-12-11T02:08:28.995Z,0.90
2022-12-11T02:11:09.775Z,0.90
2022-12-11T02:13:56.283Z,1.00
2022-12-11T02:16:35.687Z,1.00
2022-12-11T02:19:18.700Z,1.00
2022-12-11T02:21:51.837Z,1.00
2022-12-11T02:25:00.381Z,0.90
2022-12-11T02:27:47.931Z,0.90
2022-12-11T02:30:16.971Z,0.90
2022-12-11T02:32:56.519Z,0.90
2022-12-11T02:35:30.950Z,0.90
2022-12-11T02:38:03.588Z,0.90
2022-12-11T02:40:32.962Z,0.90
2022-12-11T02:43:04.605Z,0.90
2022-12-11T02:45:32.784Z,0.60
2022-12-11T02:48:03.702Z,0.60
2022-12-11T02:50:30.551Z,0.70
2022-12-11T02:52:58.844Z,0.70
2022-12-11T02:55:28.559Z,0.60
2022-12-11T02:58:14.446Z,0.50
2022-12-11T03:00:41.189Z,0.50
2022-12-11T03:03:08.016Z,0.40
2022-12-11T03:05:35.649Z,0.50
2022-12-11T03:08:02.467Z,0.60
2022-12-11T03:10:29.220Z,0.60
2022-12-11T03:12:58.572Z,0.60
2022-12-11T03:15:57.699Z,0.60
2022-12-11T03:18:27.462Z,0.60
2022-12-11T03:21:27.881Z,0.50
2022-12-11T03:24:02.869Z,0.60
2022-12-11T03:26:32.976Z,0.60
2022-12-11T03:29:08.561Z,0.60
2022-12-11T03:31:42.205Z,0.60
2022-12-11T03:34:22.922Z,0.60
2022-12-11T03:36:51.753Z,0.60
2022-12-11T03:39:33.650Z,0.50
2022-12-11T03:42:04.702Z,0.50
2022-12-11T03:44:33.452Z,0.50
2022-12-11T03:47:03.426Z,0.50
2022-12-11T03:49:36.734Z,0.60
2022-12-11T03:52:05.053Z,0.60
2022-12-11T03:54:32.241Z,0.50
2022-12-11T03:57:02.667Z,0.50
2022-12-11T03:59:29.469Z,0.50
2022-12-11T04:01:56.156Z,0.50
2022-12-11T04:04:22.991Z,0.50
2022-12-11T04:06:49.675Z,0.40
2022-12-11T04:09:16.499Z,0.20
2022-12-11T04:11:43.387Z,0.30
2022-12-11T04:14:31.423Z,0.30
2022-12-11T04:17:00.109Z,0.50
2022-12-11T04:19:45.364Z,0.40
2022-12-11T04:22:32.294Z,0.50
2022-12-11T04:24:59.183Z,0.50
2022-12-11T04:27:44.676Z,0.50
2022-12-11T04:30:16.776Z,0.50
2022-12-11T04:32:43.760Z,0.60
2022-12-11T04:35:11.846Z,0.50
2022-12-11T04:37:39.373Z,0.50
2022-12-11T04:40:09.068Z,0.50
2022-12-11T04:42:35.741Z,0.50
2022-12-11T04:45:02.440Z,0.50
2022-12-11T04:47:29.102Z,0.50
2022-12-11T04:49:55.841Z,0.50
2022-12-11T04:52:22.650Z,0.50
2022-12-11T04:54:49.296Z,0.60
2022-12-11T04:57:16.678Z,0.60
2022-12-11T04:59:43.440Z,0.20
2022-12-11T05:02:10.074Z,0.40
2022-12-11T05:04:36.813Z,0.50
2022-12-11T05:07:03.503Z,0.50
2022-12-11T05:09:30.512Z,0.50
2022-12-11T05:11:57.171Z,0.50
2022-12-11T05:14:23.936Z,0.50
2022-12-11T05:16:50.585Z,0.40
2022-12-11T05:19:17.336Z,0.40
2022-12-11T05:21:44.109Z,0.30
2022-12-11T05:24:10.804Z,0.40
2022-12-11T05:26:37.645Z,0.40
2022-12-11T05:29:04.331Z,0.40
2022-12-11T05:31:31.100Z,0.30
2022-12-11T05:33:57.821Z,0.40
2022-12-11T05:36:30.044Z,0.40
2022-12-11T05:38:58.430Z,0.40
2022-12-11T05:41:27.043Z,0.30
2022-12-11T05:43:53.989Z,0.40
2022-12-11T05:46:23.883Z,0.40
2022-12-11T05:48:53.772Z,0.40
2022-12-11T05:51:20.770Z,0.30
2022-12-11T05:53:51.144Z,0.20
2022-12-11T05:56:24.157Z,0.30
2022-12-11T05:58:51.264Z,0.10
2022-12-11T06:01:23.148Z,0.00
2022-12-11T06:03:49.886Z,-0.10
2022-12-11T06:06:16.833Z,-0.20
2022-12-11T06:08:43.661Z,0.00
2022-12-11T06:11:13.033Z,-0.10
2022-12-11T06:13:39.774Z,0.00
2022-12-11T06:16:07.805Z,0.00
2022-12-11T06:18:43.227Z,0.10
2022-12-11T06:21:17.372Z,0.10
2022-12-11T06:23:45.240Z,-0.10
2022-12-11T06:26:11.954Z,0.00
2022-12-11T06:28:39.948Z,0.00
2022-12-11T06:31:07.655Z,0.00
2022-12-11T06:33:35.065Z,0.00
2022-12-11T06:36:06.567Z,-0.10
2022-12-11T06:38:33.597Z,0.10
2022-12-11T06:41:04.636Z,0.20
2022-12-11T06:43:32.579Z,0.20
2022-12-11T06:46:03.840Z,0.20
2022-12-11T06:48:31.252Z,0.30
2022-12-11T06:50:57.926Z,0.30
2022-12-11T06:53:24.823Z,0.30
2022-12-11T06:55:51.468Z,0.30
2022-12-11T06:58:18.252Z,0.30
2022-12-11T07:00:44.952Z,0.30
2022-12-11T07:03:13.627Z,0.30
2022-12-11T07:05:40.328Z,0.30
2022-12-11T07:08:07.490Z,0.40
2022-12-11T07:10:34.349Z,0.40
2022-12-11T07:13:00.998Z,0.40
2022-12-11T07:15:27.767Z,0.40
2022-12-11T07:17:54.479Z,0.10
2022-12-11T07:20:21.263Z,0.10
2022-12-11T07:22:47.925Z,0.10
2022-12-11T07:25:14.943Z,0.10
2022-12-11T07:27:41.667Z,0.20
2022-12-11T07:30:09.312Z,0.20
2022-12-11T07:32:36.237Z,0.30
2022-12-11T07:35:03.374Z,0.40
2022-12-11T07:37:30.077Z,0.40
2022-12-11T07:39:56.762Z,0.40
2022-12-11T07:42:23.752Z,0.50
2022-12-11T07:44:50.474Z,0.30
2022-12-11T07:47:17.156Z,0.40
2022-12-11T07:49:43.834Z,0.30
2022-12-11T07:52:10.578Z,0.40
2022-12-11T07:54:37.250Z,0.30
2022-12-11T07:57:04.831Z,0.30
2022-12-11T07:59:31.671Z,0.10
2022-12-11T08:01:58.371Z,0.20
2022-12-11T08:04:25.173Z,0.30
2022-12-11T08:06:51.838Z,0.40
2022-12-11T08:09:22.506Z,0.50
2022-12-11T08:11:50.602Z,0.50
2022-12-11T08:14:17.853Z,0.50
2022-12-11T08:16:44.807Z,0.50
2022-12-11T08:19:12.440Z,0.50
2022-12-11T08:21:40.339Z,0.50
2022-12-11T08:24:07.925Z,0.50
2022-12-11T08:26:34.606Z,0.50
2022-12-11T08:29:02.808Z,0.50
2022-12-11T08:31:29.963Z,0.50
2022-12-11T08:33:57.294Z,0.50
2022-12-11T08:36:24.716Z,0.50
2022-12-11T08:38:51.757Z,0.60
2022-12-11T08:41:30.206Z,0.60
2022-12-11T08:43:58.617Z,0.60
2022-12-11T08:46:31.462Z,0.60
2022-12-11T08:48:58.737Z,0.50
2022-12-11T08:51:27.362Z,0.50
2022-12-11T08:54:01.189Z,0.70
2022-12-11T08:56:29.259Z,0.60
2022-12-11T08:58:56.160Z,2.20
2022-12-11T09:01:25.609Z,2.40
2022-12-11T09:03:53.670Z,2.50
2022-12-11T09:06:22.371Z,3.00
2022-12-11T09:08:52.862Z,2.30
2022-12-11T09:11:32.598Z,2.00
2022-12-11T09:14:05.143Z,2.10
2022-12-11T09:16:37.733Z,2.20
2022-12-11T09:19:04.603Z,1.60
2022-12-11T09:21:31.357Z,1.20
2022-12-11T09:24:00.226Z,1.00
2022-12-11T09:26:28.386Z,1.00
2022-12-11T09:28:55.493Z,0.90
2022-12-11T09:31:30.426Z,0.90
2022-12-11T09:34:02.870Z,0.90
2022-12-11T09:36:29.952Z,0.70
2022-12-11T09:39:00.984Z,0.50
2022-12-11T09:41:45.868Z,0.60
2022-12-11T09:44:30.394Z,0.80
2022-12-11T09:46:58.297Z,0.90
2022-12-11T09:49:33.883Z,0.80
2022-12-11T09:52:23.393Z,0.80
2022-12-11T09:54:54.688Z,0.70
2022-12-11T09:57:44.556Z,0.60
2022-12-11T10:00:29.843Z,0.70
2022-12-11T10:03:22.832Z,0.70
2022-12-11T10:06:06.304Z,0.70
2022-12-11T10:08:55.346Z,0.70
2022-12-11T10:11:56.409Z,0.80
2022-12-11T10:14:45.323Z,0.80
2022-12-11T10:17:27.462Z,0.80
2022-12-11T10:19:57.696Z,0.70
2022-12-11T10:22:30.245Z,0.80
2022-12-11T10:25:23.446Z,0.80
2022-12-11T10:27:51.396Z,0.80
2022-12-11T10:30:24.437Z,0.80
2022-12-11T10:33:03.430Z,0.70
2022-12-11T10:35:43.584Z,0.80
2022-12-11T10:38:15.410Z,0.80
2022-12-11T10:40:46.110Z,0.70
2022-12-11T10:43:13.283Z,0.60
2022-12-11T10:45:40.286Z,0.70
2022-12-11T10:48:11.071Z,0.80
2022-12-11T10:50:38.636Z,0.80
2022-12-11T10:53:07.376Z,0.80
2022-12-11T10:55:47.803Z,0.70
2022-12-11T10:58:23.059Z,0.70
2022-12-11T11:01:08.573Z,0.80
2022-12-11T11:03:43.869Z,0.80
2022-12-11T11:06:21.451Z,0.80
2022-12-11T11:08:53.562Z,0.80
2022-12-11T11:11:26.981Z,0.60
2022-12-11T11:14:15.961Z,0.50
2022-12-11T11:16:45.753Z,0.30
2022-12-11T11:19:21.485Z,0.40
2022-12-11T11:21:53.431Z,0.50
2022-12-11T11:24:43.651Z,0.40
2022-12-11T11:27:36.356Z,0.40
2022-12-11T11:30:17.006Z,0.50
2022-12-11T11:32:44.540Z,0.50
2022-12-11T11:35:12.414Z,0.30
2022-12-11T11:37:42.649Z,0.50
2022-12-11T11:40:22.561Z,0.50
2022-12-11T11:43:17.159Z,0.40
2022-12-11T11:46:04.232Z,0.40
2022-12-11T11:49:06.799Z,0.30
2022-12-11T11:51:49.084Z,0.40
2022-12-11T11:54:39.364Z,0.20
2022-12-11T11:57:17.198Z,0.20
2022-12-11T12:00:17.115Z,0.50
2022-12-11T12:02:44.206Z,0.70
2022-12-11T12:05:14.033Z,0.70
2022-12-11T12:07:49.468Z,0.60
2022-12-11T12:10:28.390Z,0.60
2022-12-11T12:13:18.779Z,0.60
2022-12-11T12:15:58.015Z,0.50
2022-12-11T12:18:42.477Z,0.70
2022-12-11T12:21:29.306Z,0.50
2022-12-11T12:24:17.854Z,0.70
2022-12-11T12:26:55.895Z,0.70
2022-12-11T12:29:40.571Z,0.80
2022-12-11T12:32:33.340Z,0.70
2022-12-11T12:35:28.025Z,1.00
2022-12-11T12:38:07.150Z,1.00
2022-12-11T12:40:46.037Z,0.90
2022-12-11T12:43:38.742Z,0.80
2022-12-11T12:46:05.502Z,0.80
2022-12-11T12:48:32.954Z,0.70
2022-12-11T12:51:00.477Z,0.80
2022-12-11T12:53:32.537Z,0.80
2022-12-11T12:56:01.167Z,0.90
2022-12-11T12:58:30.623Z,0.80
2022-12-11T13:01:19.379Z,0.70
2022-12-11T13:03:55.381Z,0.90
2022-12-11T13:06:44.105Z,1.00
2022-12-11T13:09:13.804Z,0.90
2022-12-11T13:11:40.592Z,1.10
2022-12-11T13:14:15.456Z,1.00
2022-12-11T13:16:44.418Z,0.80
2022-12-11T13:19:23.159Z,0.80
2022-12-11T13:22:14.589Z,0.60
2022-12-11T13:24:53.221Z,0.70
2022-12-11T13:27:26.607Z,0.80
2022-12-11T13:30:07.973Z,0.70
2022-12-11T13:32:34.916Z,0.70
2022-12-11T13:35:07.335Z,0.70
2022-12-11T13:37:38.176Z,0.60
2022-12-11T13:40:30.052Z,0.60
2022-12-11T13:43:00.831Z,0.70
2022-12-11T13:45:50.264Z,0.50
2022-12-11T13:48:43.707Z,0.80
2022-12-11T13:51:19.043Z,1.00
2022-12-11T13:53:45.768Z,1.00
2022-12-11T13:56:20.794Z,1.00
2022-12-11T13:58:48.393Z,0.90
2022-12-11T14:01:22.484Z,1.00
2022-12-11T14:03:58.099Z,1.00
2022-12-11T14:06:26.175Z,1.00
2022-12-11T14:08:55.290Z,1.20
2022-12-11T14:11:27.766Z,1.10
2022-12-11T14:13:57.742Z,1.00
2022-12-11T14:16:26.182Z,0.80
2022-12-11T14:18:54.148Z,0.80
2022-12-11T14:21:24.346Z,0.80
2022-12-11T14:23:56.583Z,0.70
2022-12-11T14:26:29.976Z,0.80
2022-12-11T14:28:56.745Z,0.80
2022-12-11T14:31:36.246Z,0.60
2022-12-11T14:34:12.874Z,0.60
2022-12-11T14:36:41.141Z,0.80
2022-12-11T14:39:13.878Z,0.80
2022-12-11T14:41:49.722Z,0.70
2022-12-11T14:44:19.180Z,0.70
2022-12-11T14:46:49.908Z,0.90
2022-12-11T14:49:26.704Z,0.70
2022-12-11T14:51:57.436Z,0.70
2022-12-11T14:54:43.230Z,0.80
2022-12-11T14:57:20.030Z,0.80
2022-12-11T14:59:49.581Z,0.70
2022-12-11T15:02:28.167Z,0.50
2022-12-11T15:05:20.292Z,0.70
2022-12-11T15:08:10.189Z,0.60
2022-12-11T15:10:57.609Z,0.80
2022-12-11T15:13:24.856Z,0.90
2022-12-11T15:15:52.944Z,0.80
2022-12-11T15:18:24.120Z,0.90
2022-12-11T15:20:57.276Z,0.90
2022-12-11T15:23:24.065Z,0.90
2022-12-11T15:25:56.782Z,0.80
2022-12-11T15:28:35.248Z,0.80
2022-12-11T15:31:21.973Z,0.90
2022-12-11T15:33:48.716Z,0.80
2022-12-11T15:36:35.565Z,0.60
2022-12-11T15:39:04.027Z,0.60
2022-12-11T15:41:33.345Z,0.60
2022-12-11T15:44:02.429Z,0.30
2022-12-11T15:46:30.039Z,0.40
2022-12-11T15:48:57.627Z,0.50
2022-12-11T15:51:25.269Z,0.50
2022-12-11T15:53:52.036Z,0.50
2022-12-11T15:56:18.808Z,0.50
2022-12-11T15:58:47.080Z,0.60
2022-12-11T16:01:13.750Z,0.60
2022-12-11T16:03:40.672Z,0.50
2022-12-11T16:06:11.314Z,0.50
2022-12-11T16:08:38.095Z,0.60
2022-12-11T16:11:04.872Z,0.70
2022-12-11T16:13:31.625Z,0.60
2022-12-11T16:15:58.391Z,0.50
2022-12-11T16:18:26.519Z,0.50
2022-12-11T16:20:53.801Z,0.50
2022-12-11T16:23:20.989Z,0.40
2022-12-11T16:25:48.092Z,0.50
2022-12-11T16:28:18.095Z,0.50
2022-12-11T16:30:45.385Z,0.40
2022-12-11T16:33:13.557Z,0.10
2022-12-11T16:35:42.012Z,0.20
2022-12-11T16:38:10.085Z,0.20
2022-12-11T16:40:37.327Z,0.30
2022-12-11T16:43:05.045Z,0.40
2022-12-11T16:45:32.322Z,0.40
2022-12-11T16:47:59.050Z,0.50
2022-12-11T16:50:26.112Z,0.40
2022-12-11T16:52:52.859Z,0.30
2022-12-11T16:55:22.204Z,0.40
2022-12-11T16:57:48.902Z,0.50
2022-12-11T17:00:15.930Z,0.50
2022-12-11T17:02:42.738Z,0.30
2022-12-11T17:05:09.670Z,0.20
2022-12-11T17:07:36.764Z,0.30
2022-12-11T17:10:03.822Z,0.50
2022-12-11T17:12:30.649Z,0.50
2022-12-11T17:14:57.827Z,0.40
2022-12-11T17:17:25.235Z,0.40
2022-12-11T17:19:51.937Z,0.50
2022-12-11T17:22:18.998Z,0.50
2022-12-11T17:24:45.679Z,0.50
2022-12-11T17:27:12.511Z,0.50
2022-12-11T17:29:39.256Z,0.30
2022-12-11T17:32:06.401Z,0.30
2022-12-11T17:34:37.862Z,0.40
2022-12-11T17:37:05.563Z,0.40
2022-12-11T17:39:32.734Z,0.50
2022-12-11T17:41:59.503Z,0.50
2022-12-11T17:44:26.757Z,0.50
2022-12-11T17:46:53.723Z,0.50
2022-12-11T17:49:20.552Z,0.40
2022-12-11T17:51:48.038Z,0.50
2022-12-11T17:54:14.756Z,0.50
2022-12-11T17:56:41.554Z,0.50
2022-12-11T17:59:08.214Z,0.60
2022-12-11T18:01:35.172Z,0.50
2022-12-11T18:04:02.337Z,0.50
2022-12-11T18:06:29.895Z,0.50
2022-12-11T18:08:57.257Z,0.50
2022-12-11T18:11:24.600Z,0.50
2022-12-11T18:13:52.390Z,0.50
2022-12-11T18:16:26.596Z,0.50
2022-12-11T18:18:53.892Z,0.50
2022-12-11T18:21:27.601Z,0.50
2022-12-11T18:23:55.157Z,0.50
2022-12-11T18:26:22.282Z,0.50
2022-12-11T18:28:50.493Z,0.50
2022-12-11T18:31:18.144Z,0.50
2022-12-11T18:33:45.942Z,0.50
2022-12-11T18:36:14.967Z,0.60
2022-12-11T18:38:42.747Z,0.50
2022-12-11T18:41:12.197Z,0.50
2022-12-11T18:43:39.236Z,0.60
2022-12-11T18:46:11.721Z,0.50
2022-12-11T18:48:38.698Z,0.50
2022-12-11T18:51:08.434Z,0.60
2022-12-11T18:53:35.805Z,0.60
2022-12-11T18:56:07.522Z,0.60
2022-12-11T18:58:34.519Z,0.50
2022-12-11T19:01:11.460Z,0.60
2022-12-11T19:03:38.138Z,0.50
2022-12-11T19:06:17.597Z,0.40
2022-12-11T19:08:44.304Z,0.50
2022-12-11T19:11:15.985Z,0.50
2022-12-11T19:13:43.902Z,0.50
2022-12-11T19:16:22.485Z,0.50
2022-12-11T19:18:50.330Z,0.50
2022-12-11T19:21:17.593Z,0.50
2022-12-11T19:23:45.595Z,0.50
2022-12-11T19:26:18.997Z,0.50
2022-12-11T19:28:48.182Z,0.50
2022-12-11T19:31:17.194Z,0.50
2022-12-11T19:33:44.390Z,0.50
2022-12-11T19:36:13.979Z,0.60
2022-12-11T19:38:42.199Z,0.60
2022-12-11T19:41:12.994Z,0.60
2022-12-11T19:43:39.760Z,0.60
2022-12-11T19:46:08.378Z,0.60
2022-12-11T19:48:41.290Z,0.50
2022-12-11T19:51:10.997Z,0.50
2022-12-11T19:53:37.920Z,0.50
2022-12-11T19:56:05.737Z,0.50
2022-12-11T19:58:33.621Z,0.50
2022-12-11T20:01:01.240Z,0.60
2022-12-11T20:03:28.357Z,0.50
2022-12-11T20:06:07.220Z,0.50
2022-12-11T20:08:44.768Z,0.40
2022-12-11T20:11:17.836Z,0.20
2022-12-11T20:13:45.980Z,0.20
2022-12-11T20:16:13.298Z,0.40
2022-12-11T20:18:40.135Z,0.40
2022-12-11T20:21:09.642Z,0.50
2022-12-11T20:23:37.203Z,0.50
2022-12-11T20:26:12.511Z,0.40
2022-12-11T20:28:39.898Z,0.50
2022-12-11T20:31:07.650Z,0.40
2022-12-11T20:33:34.683Z,0.40
2022-12-11T20:36:01.574Z,0.30
2022-12-11T20:38:34.104Z,0.40
2022-12-11T20:41:01.149Z,0.40
2022-12-11T20:43:27.821Z,0.40
2022-12-11T20:45:54.498Z,0.40
2022-12-11T20:48:21.302Z,0.40
2022-12-11T20:50:48.066Z,0.40
2022-12-11T20:53:14.709Z,0.30
2022-12-11T20:55:43.158Z,0.30
2022-12-11T20:58:10.884Z,0.20
2022-12-11T21:00:38.652Z,0.30
2022-12-11T21:03:05.896Z,0.20
2022-12-11T21:05:33.064Z,0.30
2022-12-11T21:07:59.954Z,0.40
2022-12-11T21:10:36.122Z,0.40
2022-12-11T21:13:03.117Z,0.40
2022-12-11T21:15:30.051Z,0.40
2022-12-11T21:17:56.743Z,0.30
2022-12-11T21:20:23.419Z,0.40
2022-12-11T21:22:50.148Z,0.40
2022-12-11T21:25:16.915Z,0.40
2022-12-11T21:27:43.802Z,0.40
2022-12-11T21:30:11.374Z,0.30
2022-12-11T21:32:39.092Z,0.30
2022-12-11T21:35:06.191Z,0.40
2022-12-11T21:37:32.892Z,0.30
2022-12-11T21:40:00.210Z,0.20
2022-12-11T21:42:27.773Z,0.20
2022-12-11T21:45:37.444Z,0.30
2022-12-11T21:47:41.136Z,0.40
2022-12-11T21:50:08.048Z,0.30
2022-12-11T21:52:34.753Z,0.30
2022-12-11T21:55:01.436Z,0.30
2022-12-11T21:57:28.084Z,0.20
2022-12-11T21:59:54.755Z,0.20
2022-12-11T22:02:21.500Z,0.30
2022-12-11T22:04:48.178Z,0.20
2022-12-11T22:07:16.287Z,0.20
2022-12-11T22:09:43.548Z,0.00
2022-12-11T22:12:22.587Z,0.10
2022-12-11T22:14:49.986Z,0.20
2022-12-11T22:17:18.179Z,0.30
2022-12-11T22:19:46.047Z,0.20
2022-12-11T22:22:14.491Z,0.20
2022-12-11T22:24:41.351Z,0.10
2022-12-11T22:27:08.138Z,0.20
2022-12-11T22:29:35.559Z,0.10
2022-12-11T22:32:02.296Z,-0.10
2022-12-11T22:34:28.965Z,-0.20
2022-12-11T22:36:56.242Z,0.10
2022-12-11T22:39:24.478Z,0.10
2022-12-11T22:41:51.257Z,0.10
2022-12-11T22:44:20.416Z,0.20
2022-12-11T22:46:50.290Z,0.10
2022-12-11T22:49:18.934Z,-0.10
2022-12-11T22:51:45.869Z,0.00
2022-12-11T22:54:12.520Z,0.10
2022-12-11T22:56:39.190Z,0.00
2022-12-11T22:59:07.465Z,0.00
2022-12-11T23:01:34.425Z,0.00
2022-12-11T23:04:01.151Z,-0.10
2022-12-11T23:06:27.875Z,-0.10
2022-12-11T23:08:58.227Z,-0.10
2022-12-11T23:11:31.615Z,0.00
2022-12-11T23:13:58.379Z,0.10
2022-12-11T23:16:26.198Z,0.10
2022-12-11T23:18:54.387Z,0.20
2022-12-11T23:21:22.188Z,0.10
2022-12-11T23:23:49.600Z,0.20
2022-12-11T23:26:18.725Z,0.30
2022-12-11T23:28:46.351Z,0.20
2022-12-11T23:31:13.255Z,0.30
2022-12-11T23:33:39.963Z,0.30
2022-12-11T23:36:06.924Z,0.10
2022-12-11T23:38:33.669Z,0.20
2022-12-11T23:41:02.663Z,0.20
2022-12-11T23:43:29.361Z,0.20
2022-12-11T23:45:56.111Z,0.20
2022-12-11T23:48:23.054Z,0.10
2022-12-11T23:50:49.788Z,0.20
2022-12-11T23:53:16.762Z,0.00
2022-12-11T23:55:45.346Z,0.10
2022-12-11T23:58:12.091Z,0.10
